Time;durP1;ratioP1;P1;durP2;ratioP2;P2;SDS_P1;SDS_P2;PMS_P1;PMS_P2;Temp;Humidity;BMP_temperature;BMP_pressure;BME280_temperature;BME280_humidity;BME280_pressure;Samples;Min_cycle;Max_cycle;Signal;HPM_P1;HPM_P2
2022/04/26 03:36:41;;;;;;;6.80;3.35;;;17.40;80.30;;;;;;5136300;27;20138;-62
2022/04/26 03:39:06;;;;;;;8.32;3.60;;;17.20;80.40;;;;;;5119521;27;20113;-62
2022/04/26 03:41:33;;;;;;;8.23;3.30;;;17.10;80.20;;;;;;5137150;27;20058;-63
2022/04/26 03:43:59;;;;;;;8.05;3.60;;;17.30;77.80;;;;;;5136585;27;20043;-62
2022/04/26 03:46:25;;;;;;;7.57;3.10;;;;;;;;;;5118292;27;20437;-63
2022/04/26 03:48:50;;;;;;;8.70;3.25;;;17.30;80.50;;;;;;5117849;27;20108;-63
2022/04/26 03:51:16;;;;;;;9.80;3.13;;;17.10;77.60;;;;;;5137443;27;20036;-63
2022/04/26 03:53:42;;;;;;;8.15;3.17;;;16.90;80.10;;;;;;5136060;27;20077;-63
2022/04/26 03:56:08;;;;;;;8.55;3.13;;;17.30;80.50;;;;;;5117565;27;20042;-62
2022/04/26 03:58:33;;;;;;;8.52;3.50;;;17.30;80.50;;;;;;5133740;27;20031;-63
2022/04/26 04:01:00;;;;;;;9.57;3.10;;;17.30;80.50;;;;;;5149674;27;20043;-63
2022/04/26 04:03:26;;;;;;;7.78;3.17;;;17.20;80.30;;;;;;5117814;27;20051;-63
2022/04/26 04:05:52;;;;;;;9.48;3.25;;;17.20;80.50;;;;;;5100543;27;20137;-63
2022/04/26 04:08:18;;;;;;;6.43;3.67;;;17.30;77.80;;;;;;5117938;27;20122;-62
2022/04/26 04:10:44;;;;;;;8.23;3.03;;;;;;;;;;5116895;27;20051;-65
2022/04/26 04:13:10;;;;;;;7.03;3.35;;;17.20;80.50;;;;;;5154552;27;20423;-65
2022/04/26 04:15:36;;;;;;;9.70;3.30;;;17.50;80.60;;;;;;5139577;27;20076;-65
2022/04/26 04:18:03;;;;;;;9.60;3.53;;;17.20;80.50;;;;;;5134721;27;20047;-65
2022/04/26 04:20:29;;;;;;;6.35;2.95;;;17.30;78.00;;;;;;5117184;27;20051;-65
2022/04/26 04:22:56;;;;;;;8.75;2.95;;;17.10;80.90;;;;;;5137008;27;20090;-65
2022/04/26 04:25:22;;;;;;;9.68;3.45;;;17.00;80.40;;;;;;5124983;27;20049;-63
2022/04/26 04:27:48;;;;;;;9.02;3.40;;;17.20;80.70;;;;;;5134971;27;20039;-64
2022/04/26 04:30:13;;;;;;;7.82;3.05;;;17.10;80.60;;;;;;5116944;27;20480;-65
2022/04/26 04:32:39;;;;;;;10.32;3.20;;;17.20;80.60;;;;;;5147548;27;20047;-65
2022/04/26 04:35:06;;;;;;;7.40;3.10;;;17.30;80.70;;;;;;5155760;27;20078;-65
2022/04/26 04:37:32;;;;;;;9.10;3.15;;;17.20;80.60;;;;;;5136093;27;20135;-65
2022/04/26 04:39:57;;;;;;;7.93;2.90;;;17.30;80.50;;;;;;5119323;27;20063;-65
2022/04/26 04:42:23;;;;;;;7.85;3.25;;;17.20;80.60;;;;;;5117157;27;20046;-65
2022/04/26 04:44:49;;;;;;;7.97;3.20;;;17.30;80.60;;;;;;5099204;27;20728;-64
2022/04/26 04:47:15;;;;;;;8.35;3.45;;;17.50;78.10;;;;;;5135411;27;20100;-64
2022/04/26 04:49:41;;;;;;;8.10;3.15;;;17.40;80.60;;;;;;5135398;27;20522;-65
2022/04/26 04:52:06;;;;;;;8.82;3.33;;;17.40;78.00;;;;;;5147722;27;20041;-65
2022/04/26 04:54:32;;;;;;;6.93;2.90;;;17.00;80.30;;;;;;5133611;27;20495;-65
2022/04/26 04:56:58;;;;;;;6.32;3.10;;;17.30;80.80;;;;;;5116141;27;20051;-65
2022/04/26 04:59:24;;;;;;;8.00;2.95;;;17.20;77.80;;;;;;5137858;27;20041;-65
2022/04/26 05:01:49;;;;;;;8.80;3.17;;;17.50;80.40;;;;;;5155485;27;20511;-65
2022/04/26 05:04:15;;;;;;;7.97;2.95;;;;;;;;;;5151991;27;20039;-65
2022/04/26 05:06:41;;;;;;;8.77;3.47;;;17.50;80.20;;;;;;5121732;27;20043;-65
2022/04/26 05:09:07;;;;;;;8.30;3.03;;;17.50;80.10;;;;;;5134530;27;20135;-65
2022/04/26 05:11:33;;;;;;;9.07;3.05;;;17.50;77.40;;;;;;5134644;27;20050;-65
2022/04/26 05:13:59;;;;;;;8.75;2.88;;;;;;;;;;5115219;27;20051;-64
2022/04/26 05:16:25;;;;;;;7.95;2.90;;;17.50;77.00;;;;;;5117124;27;20038;-65
2022/04/26 05:18:50;;;;;;;8.30;2.90;;;17.90;80.10;;;;;;5134568;27;20126;-65
2022/04/26 05:21:16;;;;;;;8.48;3.00;;;17.90;79.70;;;;;;5114833;27;20042;-63
2022/04/26 05:26:26;;;;;;;8.27;2.95;;;17.90;79.40;;;;;;5136031;27;20103;-64
2022/04/26 05:28:52;;;;;;;5.95;2.80;;;17.90;79.40;;;;;;5135076;27;20385;-64
2022/04/26 05:31:18;;;;;;;7.60;2.70;;;18.10;79.40;;;;;;5116133;27;20042;-64
2022/04/26 05:33:43;;;;;;;5.60;2.60;;;18.20;79.30;;;;;;5133706;27;20091;-65
2022/04/26 05:36:09;;;;;;;7.60;3.33;;;18.40;79.00;;;;;;5114253;27;20522;-63
2022/04/26 05:38:35;;;;;;;9.85;3.25;;;18.40;78.90;;;;;;5134717;27;20042;-65
2022/04/26 05:41:01;;;;;;;7.45;3.28;;;18.70;76.20;;;;;;5141464;27;20118;-64
2022/04/26 05:43:27;;;;;;;7.15;3.00;;;18.70;78.60;;;;;;5138516;27;20054;-63
2022/04/26 05:45:53;;;;;;;7.25;3.10;;;18.80;75.70;;;;;;5112039;27;20127;-64
2022/04/26 05:48:19;;;;;;;8.13;3.45;;;18.80;75.50;;;;;;5149973;27;20501;-65
2022/04/26 05:50:45;;;;;;;7.97;3.00;;;19.10;78.20;;;;;;5126590;27;20383;-66
2022/04/26 05:53:11;;;;;;;8.82;3.53;;;;;;;;;;5150670;27;20047;-65
2022/04/26 05:55:38;;;;;;;8.73;2.70;;;19.10;77.60;;;;;;5142516;27;20045;-65
2022/04/26 05:58:04;;;;;;;7.88;3.00;;;19.50;77.60;;;;;;5121245;27;20100;-66
2022/04/26 06:00:31;;;;;;;7.25;2.88;;;19.30;74.30;;;;;;5142201;27;20107;-65
2022/04/26 06:02:57;;;;;;;7.20;2.60;;;;;;;;;;5139868;27;20422;-65
2022/04/26 06:05:23;;;;;;;7.45;3.33;;;19.40;72.70;;;;;;5144439;27;20087;-65
2022/04/26 06:07:49;;;;;;;7.43;2.75;;;;;;;;;;5122812;27;20043;-65
2022/04/26 06:10:15;;;;;;;7.90;2.50;;;19.50;76.90;;;;;;5141327;27;20418;-65
2022/04/26 06:12:44;;;;;;;6.22;3.40;;;19.50;76.90;;;;;;5104624;27;20480;-65
2022/04/26 06:15:10;;;;;;;6.25;3.20;;;19.70;76.80;;;;;;5123565;27;20475;-65
2022/04/26 06:17:36;;;;;;;5.80;2.85;;;19.80;76.70;;;;;;5122971;27;20085;-66
2022/04/26 06:20:02;;;;;;;6.60;2.83;;;19.90;76.60;;;;;;5124272;27;20062;-65
2022/04/26 06:22:28;;;;;;;6.63;2.90;;;19.60;76.30;;;;;;5122443;27;20050;-66
2022/04/26 06:24:54;;;;;;;6.63;2.70;;;19.90;73.50;;;;;;5127029;27;20127;-66
2022/04/26 06:27:20;;;;;;;5.15;2.58;;;20.10;76.40;;;;;;5125765;27;20039;-66
2022/04/26 06:29:46;;;;;;;8.18;3.00;;;20.00;76.20;;;;;;5105828;27;20049;-66
2022/04/26 06:32:12;;;;;;;6.50;2.63;;;20.10;74.00;;;;;;5153488;27;20054;-65
2022/04/26 06:34:37;;;;;;;6.13;2.38;;;20.20;76.30;;;;;;5140583;27;20046;-66
2022/04/26 06:37:03;;;;;;;8.27;3.15;;;20.10;73.50;;;;;;5158253;27;20081;-66
2022/04/26 06:39:29;;;;;;;7.07;2.78;;;;;;;;;;5138717;27;20069;-64
2022/04/26 06:41:55;;;;;;;7.38;2.75;;;19.90;76.10;;;;;;5159865;27;20047;-64
2022/04/26 06:44:21;;;;;;;8.43;3.33;;;19.90;76.10;;;;;;5161604;27;20407;-64
2022/04/26 06:46:47;;;;;;;7.72;2.50;;;20.00;76.20;;;;;;5160696;27;20046;-64
2022/04/26 06:49:13;;;;;;;9.77;2.78;;;;;;;;;;5161332;27;20047;-64
2022/04/26 06:51:42;;;;;;;5.63;2.63;;;20.00;76.20;;;;;;5146449;27;20115;-65
2022/04/26 06:54:08;;;;;;;6.38;2.50;;;20.00;76.10;;;;;;5137119;27;20050;-66
2022/04/26 06:56:34;;;;;;;5.75;2.78;;;19.80;75.90;;;;;;5136788;27;20043;-66
2022/04/26 06:58:59;;;;;;;8.63;3.17;;;20.00;73.20;;;;;;5101952;27;20050;-65
2022/04/26 07:01:25;;;;;;;6.93;2.65;;;20.20;76.10;;;;;;5120806;27;20088;-66
2022/04/26 07:03:51;;;;;;;6.80;2.63;;;20.10;76.00;;;;;;5121076;27;20050;-65
2022/04/26 07:06:17;;;;;;;7.88;2.58;;;20.10;73.10;;;;;;5158118;27;20054;-66
2022/04/26 07:08:43;;;;;;;6.13;2.80;;;19.90;76.00;;;;;;5158075;27;20436;-65
2022/04/26 07:11:08;;;;;;;7.07;2.60;;;19.80;73.10;;;;;;5122437;27;20046;-65
2022/04/26 07:13:34;;;;;;;8.13;3.25;;;19.90;76.10;;;;;;5140629;27;20058;-65
2022/04/26 07:16:00;;;;;;;9.82;2.70;;;19.90;76.20;;;;;;5137125;27;20039;-65
2022/04/26 07:18:26;;;;;;;5.47;2.60;;;19.80;76.10;;;;;;5101532;27;20061;-65
2022/04/26 07:20:52;;;;;;;8.02;2.85;;;19.90;76.10;;;;;;5103612;27;20035;-65
2022/04/26 07:23:18;;;;;;;8.15;2.97;;;19.80;76.40;;;;;;5138502;27;20042;-65
2022/04/26 07:25:44;;;;;;;8.18;3.33;;;19.70;76.20;;;;;;5118184;27;20039;-65
2022/04/26 07:28:10;;;;;;;8.13;3.00;;;;;;;;;;5103672;27;20142;-65
2022/04/26 07:30:38;;;;;;;8.63;2.95;;;19.80;76.40;;;;;;5136895;27;20071;-65
2022/04/26 07:35:49;;;;;;;6.82;2.90;;;19.60;73.70;;;;;;5136406;27;20492;-66
2022/04/26 07:38:15;;;;;;;7.22;3.22;;;19.60;76.40;;;;;;5136861;27;20176;-66
2022/04/26 07:40:41;;;;;;;7.30;3.20;;;19.50;73.50;;;;;;5118260;27;20126;-65
2022/04/26 07:43:07;;;;;;;6.80;3.45;;;19.60;76.60;;;;;;5137267;27;20402;-65
2022/04/26 07:45:36;;;;;;;6.60;2.95;;;19.50;76.70;;;;;;5088748;27;20054;-65
2022/04/26 07:48:02;;;;;;;8.15;3.03;;;19.40;76.70;;;;;;5137697;27;20043;-66
2022/04/26 07:50:28;;;;;;;8.50;3.03;;;19.50;76.90;;;;;;5100840;27;20043;-65
2022/04/26 07:52:54;;;;;;;6.97;2.90;;;19.40;74.30;;;;;;5136509;27;20046;-65
2022/04/26 07:55:20;;;;;;;6.63;2.78;;;19.00;76.60;;;;;;5148427;27;20047;-65
2022/04/26 07:57:45;;;;;;;8.35;3.30;;;19.10;76.80;;;;;;5117042;27;20078;-65
2022/04/26 08:00:12;;;;;;;9.32;2.85;;;;;;;;;;5100577;27;20043;-65
2022/04/26 08:02:37;;;;;;;10.77;2.90;;;19.10;76.80;;;;;;5135012;27;20043;-65
2022/04/26 08:05:03;;;;;;;9.65;2.90;;;19.10;74.20;;;;;;5143916;27;20087;-65
2022/04/26 08:07:29;;;;;;;8.05;3.30;;;19.40;77.10;;;;;;5144390;27;20050;-65
2022/04/26 08:09:55;;;;;;;8.77;2.40;;;19.10;76.90;;;;;;5136589;27;20031;-65
2022/04/26 08:12:22;;;;;;;7.68;2.85;;;18.90;76.70;;;;;;5136268;27;20043;-65
2022/04/26 08:14:47;;;;;;;6.57;2.53;;;18.70;76.50;;;;;;5116928;27;20043;-65
2022/04/26 08:17:16;;;;;;;9.30;3.13;;;19.10;77.00;;;;;;5119025;27;20054;-65
2022/04/26 08:19:42;;;;;;;7.80;2.95;;;19.10;76.80;;;;;;5138951;27;20053;-65
2022/04/26 08:22:08;;;;;;;8.05;3.47;;;19.50;77.10;;;;;;5136554;27;20084;-65
2022/04/26 08:27:25;;;;;;;7.60;3.25;;;19.40;77.00;;;;;;5141003;27;20039;-65
2022/04/26 08:29:51;;;;;;;;;;;19.20;74.00;;;;;;5146415;27;20099;-66
2022/04/26 08:32:17;;;;;;;8.38;2.70;;;19.60;76.70;;;;;;5156376;27;20014;-65
2022/04/26 08:34:44;;;;;;;8.73;3.03;;;19.60;76.50;;;;;;5137568;27;20103;-65
2022/04/26 08:37:10;;;;;;;5.57;2.80;;;19.70;76.00;;;;;;5147382;27;20122;-64
2022/04/26 08:39:36;;;;;;;5.40;2.70;;;;;;;;;;5135558;27;20127;-65
2022/04/26 08:42:02;;;;;;;6.10;3.15;;;19.60;73.70;;;;;;5134888;27;20042;-65
2022/04/26 08:44:28;;;;;;;7.70;2.90;;;19.40;76.20;;;;;;5116799;27;20158;-66
2022/04/26 08:52:24;;;;;;;5.80;2.80;;;19.40;73.00;;;;;;5114918;27;20078;-65
2022/04/26 08:54:50;;;;;;;7.15;2.80;;;19.80;76.40;;;;;;5116474;27;20039;-65
2022/04/26 08:57:16;;;;;;;7.53;2.60;;;19.60;73.50;;;;;;5110182;27;20039;-65
2022/04/26 08:59:49;;;;;;;5.40;2.38;;;19.90;76.10;;;;;;5134847;27;20039;-65
2022/04/26 09:02:19;;;;;;;5.88;2.33;;;20.10;75.90;;;;;;5099160;27;20054;-65
2022/04/26 09:05:01;;;;;;;7.82;3.00;;;20.30;76.00;;;;;;5116762;27;20426;-65
2022/04/26 09:07:39;;;;;;;5.78;2.88;;;20.00;72.60;;;;;;5099400;27;20051;-65
2022/04/26 09:10:16;;;;;;;7.38;2.50;;;20.10;72.50;;;;;;5099779;27;20515;-66
2022/04/26 09:13:08;;;;;;;8.65;2.75;;;21.60;72.30;;;;;;5133753;27;20063;-65
2022/04/26 09:15:45;;;;;;;7.20;2.95;;;20.40;75.60;;;;;;5126084;27;20070;-66
2022/04/26 09:18:15;;;;;;;8.07;2.88;;;20.60;75.70;;;;;;5120561;27;20042;-66
2022/04/26 09:20:42;;;;;;;7.68;2.83;;;20.10;75.30;;;;;;5143963;27;20621;-64
2022/04/26 09:23:23;;;;;;;8.60;3.03;;;20.40;75.50;;;;;;5136013;27;20042;-64
2022/04/26 09:25:54;;;;;;;6.97;2.83;;;20.10;73.60;;;;;;5154925;27;20043;-63
2022/04/26 09:28:28;;;;;;;10.30;3.05;;;20.40;75.40;;;;;;5112677;27;20035;-64
2022/04/26 09:30:54;;;;;;;5.57;2.53;;;;;;;;;;5115429;27;20511;-65
2022/04/26 09:33:43;;;;;;;5.07;2.80;;;20.30;75.30;;;;;;5123559;27;20046;-65
2022/04/26 09:36:09;;;;;;;7.85;2.90;;;20.40;75.30;;;;;;5086872;27;20051;-64
2022/04/26 09:38:36;;;;;;;5.15;2.75;;;20.50;75.50;;;;;;5118498;28;20083;-64
2022/04/26 09:41:04;;;;;;;7.07;3.17;;;20.40;72.20;;;;;;5115512;27;20047;-66
2022/04/26 09:43:30;;;;;;;5.68;2.70;;;20.70;75.20;;;;;;5127230;27;20039;-63
2022/04/26 09:45:56;;;;;;;6.45;2.90;;;20.80;75.30;;;;;;5155271;27;20086;-65
2022/04/26 09:48:38;;;;;;;6.90;2.70;;;20.60;75.10;;;;;;5119306;27;20042;-66
2022/04/26 09:51:05;;;;;;;7.15;3.13;;;20.80;75.20;;;;;;5138433;27;20043;-66
2022/04/26 09:53:32;;;;;;;5.50;2.60;;;20.60;75.10;;;;;;5144561;27;20032;-66
2022/04/26 09:56:01;;;;;;;7.30;2.83;;;20.90;75.30;;;;;;5124480;28;20556;-66
2022/04/26 09:58:28;;;;;;;5.70;2.60;;;20.60;75.10;;;;;;5115717;28;20054;-66
2022/04/26 10:00:56;;;;;;;8.63;2.97;;;21.00;75.30;;;;;;5134455;28;20054;-65
2022/04/26 10:03:29;;;;;;;8.27;2.60;;;20.60;74.60;;;;;;5135262;27;20043;-65
2022/04/26 10:05:59;;;;;;;6.07;2.78;;;20.70;75.10;;;;;;5116325;28;20049;-65
2022/04/26 10:08:25;;;;;;;6.07;2.67;;;;;;;;;;5115655;27;20035;-66
2022/04/26 10:10:51;;;;;;;9.77;3.20;;;;;;;;;;5117605;27;20220;-65
2022/04/26 10:13:32;;;;;;;7.43;3.00;;;20.80;75.20;;;;;;5119183;27;20137;-67
2022/04/26 10:16:19;;;;;;;6.47;2.90;;;21.00;75.30;;;;;;5088184;28;20050;-65
2022/04/26 10:18:47;;;;;;;9.20;3.15;;;20.90;72.20;;;;;;5133314;27;20460;-64
2022/04/26 10:21:20;;;;;;;8.00;2.97;;;20.90;72.30;;;;;;5131749;27;20106;-65
2022/04/26 10:24:02;;;;;;;5.97;2.55;;;20.70;75.20;;;;;;5136396;27;20049;-66
2022/04/26 10:26:28;;;;;;;7.20;2.90;;;;;;;;;;5118830;27;20454;-67
2022/04/26 10:28:59;;;;;;;5.78;2.55;;;20.60;75.20;;;;;;5136237;27;20042;-66
2022/04/26 10:31:41;;;;;;;6.00;2.47;;;20.90;75.30;;;;;;5105871;27;20123;-66
2022/04/26 10:34:16;;;;;;;6.45;2.55;;;20.70;75.10;;;;;;5137042;27;20046;-66
2022/04/26 10:36:45;;;;;;;9.02;3.13;;;20.80;75.20;;;;;;5119243;27;20120;-66
2022/04/26 10:39:12;;;;;;;8.10;3.45;;;20.70;75.30;;;;;;5120737;27;20054;-65
2022/04/26 10:41:45;;;;;;;6.65;2.83;;;20.90;75.40;;;;;;5136759;27;20055;-65
2022/04/26 10:44:13;;;;;;;7.80;2.75;;;20.80;75.20;;;;;;5137731;27;20082;-69
2022/04/26 10:46:47;;;;;;;7.70;2.78;;;20.70;75.60;;;;;;5138338;27;20400;-67
2022/04/26 10:49:23;;;;;;;6.65;2.90;;;20.80;75.40;;;;;;5119292;27;20051;-67
2022/04/26 10:51:53;;;;;;;10.57;2.95;;;20.90;73.10;;;;;;5120205;27;20051;-66
2022/04/26 10:54:47;;;;;;;7.57;2.83;;;20.80;74.70;;;;;;5119133;27;20043;-67
2022/04/26 10:57:13;;;;;;;6.65;2.75;;;20.90;75.50;;;;;;5136924;27;20039;-67
2022/04/26 11:00:18;;;;;;;6.43;2.67;;;21.10;75.60;;;;;;5101707;27;20107;-66
2022/04/26 11:02:49;;;;;;;6.47;2.85;;;20.70;73.20;;;;;;5022891;28;22047;-66
2022/04/26 11:05:16;;;;;;;8.23;2.60;;;20.90;75.80;;;;;;5038842;28;20048;-66
2022/04/26 11:07:46;;;;;;;5.53;2.53;;;21.00;75.80;;;;;;5057119;28;20045;-67
2022/04/26 11:10:13;;;;;;;7.60;2.60;;;20.80;73.20;;;;;;5057262;28;20218;-66
2022/04/26 11:12:40;;;;;;;6.28;2.80;;;20.80;75.60;;;;;;5056872;28;20047;-66
2022/04/26 11:15:22;;;;;;;6.07;2.65;;;20.90;72.70;;;;;;5039585;28;20057;-67
2022/04/26 11:17:50;;;;;;;5.87;2.67;;;21.10;76.00;;;;;;5056891;28;20452;-67
2022/04/26 11:20:25;;;;;;;5.40;2.42;;;21.00;76.10;;;;;;5057277;28;20052;-67
2022/04/26 11:22:55;;;;;;;6.95;3.03;;;21.10;75.80;;;;;;5072754;28;20506;-66
2022/04/26 11:28:12;;;;;;;7.53;2.72;;;21.10;76.30;;;;;;5072897;28;20456;-67
2022/04/26 11:30:40;;;;;;;6.03;2.67;;;21.10;76.50;;;;;;5072741;28;20044;-66
2022/04/26 11:33:22;;;;;;;7.93;2.85;;;21.20;72.80;;;;;;5091495;27;20139;-66
2022/04/26 11:36:04;;;;;;;6.97;2.63;;;21.20;75.90;;;;;;5138973;27;20083;-67
2022/04/26 11:38:30;;;;;;;5.88;2.60;;;21.30;76.00;;;;;;5123228;27;20051;-68
2022/04/26 11:41:02;;;;;;;6.28;2.50;;;21.10;76.00;;;;;;5138577;27;20107;-67
2022/04/26 11:43:33;;;;;;;6.82;2.80;;;21.10;76.00;;;;;;5153314;27;20042;-66
2022/04/26 11:45:59;;;;;;;7.03;2.60;;;21.00;75.80;;;;;;5138167;27;20084;-67
2022/04/26 11:48:28;;;;;;;6.25;2.50;;;21.00;75.80;;;;;;5136361;27;20043;-66
2022/04/26 11:50:55;;;;;;;6.07;2.47;;;21.20;76.10;;;;;;5145577;27;20049;-67
2022/04/26 11:53:39;;;;;;;10.68;2.72;;;21.10;76.00;;;;;;5121162;27;20069;-66
2022/04/26 11:56:06;;;;;;;8.68;3.40;;;;;;;;;;5136335;27;20042;-67
2022/04/26 11:58:38;;;;;;;12.00;2.70;;;21.30;76.70;;;;;;5135879;27;20043;-69
2022/04/26 12:01:07;;;;;;;5.43;2.90;;;21.30;76.50;;;;;;5135241;27;20392;-68
2022/04/26 12:03:52;;;;;;;6.22;3.00;;;21.50;72.00;;;;;;5121971;27;20484;-67
2022/04/26 12:06:32;;;;;;;13.23;3.25;;;21.30;76.70;;;;;;5120303;27;20050;-69
2022/04/26 12:08:59;;;;;;;8.43;3.13;;;21.00;73.30;;;;;;5137746;27;20042;-70
2022/04/26 12:11:27;;;;;;;9.35;3.30;;;21.40;76.50;;;;;;5139695;27;20058;-70
2022/04/26 12:14:03;;;;;;;9.52;3.10;;;21.50;71.90;;;;;;5144445;27;20043;-69
2022/04/26 12:16:29;;;;;;;8.10;3.22;;;21.30;76.20;;;;;;5109120;27;20035;-66
2022/04/26 12:19:03;;;;;;;7.32;3.05;;;21.20;76.00;;;;;;5132101;27;20086;-70
2022/04/26 12:21:42;;;;;;;9.43;3.00;;;21.30;72.10;;;;;;5153753;27;20435;-69
2022/04/26 12:24:21;;;;;;;7.70;3.05;;;21.30;71.50;;;;;;5118680;27;20054;-69
2022/04/26 12:27:11;;;;;;;8.68;3.30;;;21.30;76.40;;;;;;5136330;27;20043;-69
2022/04/26 12:29:37;;;;;;;5.47;2.83;;;21.20;76.10;;;;;;5138056;27;20062;-68
2022/04/26 12:32:10;;;;;;;9.55;3.30;;;21.30;76.30;;;;;;5137945;27;20058;-70
2022/04/26 12:34:36;;;;;;;7.78;2.67;;;21.30;76.10;;;;;;5117278;27;20047;-65
2022/04/26 12:37:06;;;;;;;5.95;2.72;;;21.40;76.30;;;;;;5135546;27;20046;-69
2022/04/26 12:39:38;;;;;;;7.72;2.92;;;21.40;76.50;;;;;;5134527;27;20443;-69
2022/04/26 12:42:07;;;;;;;5.55;2.60;;;21.30;76.20;;;;;;5134237;27;20438;-69
2022/04/26 12:44:34;;;;;;;7.43;2.90;;;21.20;76.10;;;;;;5133189;27;20053;-65
2022/04/26 12:52:47;;;;;;;5.07;2.33;;;21.20;76.00;;;;;;5119586;27;20047;-67
2022/04/26 12:55:14;;;;;;;4.90;2.70;;;21.20;75.70;;;;;;5133608;27;20050;-69
2022/04/26 12:57:47;;;;;;;6.75;2.55;;;21.30;73.30;;;;;;5116519;27;20046;-70
2022/04/26 13:00:13;;;;;;;6.15;3.08;;;21.30;73.30;;;;;;5116848;27;20047;-70
2022/04/26 13:02:39;;;;;;;5.30;2.40;;;21.20;72.50;;;;;;5134284;27;20043;-70
2022/04/26 13:05:05;;;;;;;6.07;2.60;;;21.20;75.60;;;;;;5134866;27;20046;-69
2022/04/26 13:07:31;;;;;;;5.45;2.45;;;21.40;75.70;;;;;;5133907;27;20032;-70
2022/04/26 13:09:57;;;;;;;5.22;2.10;;;21.40;75.60;;;;;;5135073;27;20053;-69
2022/04/26 13:12:23;;;;;;;6.07;2.60;;;21.10;75.40;;;;;;5133755;27;20127;-70
2022/04/26 13:14:48;;;;;;;7.25;2.42;;;21.20;75.90;;;;;;5134644;27;20517;-67
2022/04/26 13:17:14;;;;;;;4.85;2.50;;;21.40;75.90;;;;;;5133714;27;20162;-69
2022/04/26 13:19:40;;;;;;;6.03;2.33;;;21.30;75.90;;;;;;5098591;28;20042;-69
2022/04/26 13:22:06;;;;;;;6.15;2.60;;;21.00;72.80;;;;;;5114391;28;20055;-69
2022/04/26 13:24:32;;;;;;;7.22;2.42;;;21.20;75.80;;;;;;5114120;28;20148;-71
2022/04/26 13:26:57;;;;;;;8.30;2.50;;;21.10;75.70;;;;;;5112713;28;20403;-67
2022/04/26 13:29:23;;;;;;;7.90;2.83;;;21.10;75.30;;;;;;5113935;28;20036;-67
2022/04/26 13:31:49;;;;;;;5.57;2.90;;;21.10;75.00;;;;;;5095983;28;20134;-67
2022/04/26 13:34:15;;;;;;;6.80;2.58;;;21.10;74.80;;;;;;5112776;28;20118;-67
2022/04/26 13:36:41;;;;;;;7.65;2.72;;;21.10;73.70;;;;;;5129296;27;20055;-66
2022/04/26 13:39:07;;;;;;;7.40;2.80;;;;;;;;;;5116521;27;20481;-67
2022/04/26 13:41:33;;;;;;;5.60;3.05;;;21.10;74.40;;;;;;5112557;28;20039;-66
2022/04/26 13:43:59;;;;;;;12.50;3.33;;;20.90;74.20;;;;;;5123329;28;20038;-67
2022/04/26 13:46:25;;;;;;;10.38;3.05;;;20.90;74.00;;;;;;5121228;27;20481;-67
2022/04/26 13:48:52;;;;;;;9.95;2.58;;;21.00;74.20;;;;;;5131202;28;20035;-64
2022/04/26 13:51:18;;;;;;;6.85;3.10;;;20.80;73.80;;;;;;5132924;28;20054;-64
2022/04/26 13:53:44;;;;;;;6.65;2.80;;;;;;;;;;5117149;28;20456;-67
2022/04/26 13:56:09;;;;;;;5.65;2.60;;;20.70;72.90;;;;;;5115872;27;20051;-66
2022/04/26 13:58:35;;;;;;;9.57;3.22;;;20.60;74.00;;;;;;5105825;28;20408;-67
2022/04/26 14:01:01;;;;;;;7.75;2.92;;;20.80;74.30;;;;;;5120595;27;20047;-67
2022/04/26 14:03:27;;;;;;;8.35;3.25;;;20.70;74.30;;;;;;5117921;28;20047;-67
2022/04/26 14:05:55;;;;;;;7.60;2.50;;;20.30;73.90;;;;;;5116714;28;20397;-66
2022/04/26 14:08:21;;;;;;;13.38;3.42;;;;;;;;;;5117370;27;20445;-67
2022/04/26 14:10:47;;;;;;;11.90;2.92;;;20.60;74.10;;;;;;5117347;27;20055;-66
2022/04/26 14:13:12;;;;;;;6.40;2.83;;;20.60;74.10;;;;;;5130279;27;20438;-66
2022/04/26 14:21:47;;;;;;;21.52;3.95;;;20.50;74.00;;;;;;5125009;27;20058;-68
2022/04/26 14:24:04;;;;;;;19.60;3.60;;;;;;;;;;5136293;27;20096;-66
2022/04/26 14:26:30;;;;;;;29.35;3.88;;;;;;;;;;5128697;27;20050;-66
2022/04/26 14:28:56;;;;;;;14.52;3.28;;;20.10;73.70;;;;;;5117101;28;20094;-66
2022/04/26 14:31:22;;;;;;;21.48;3.65;;;20.20;73.70;;;;;;5129192;27;20066;-65
2022/04/26 14:33:48;;;;;;;15.00;3.30;;;;;;;;;;5125962;27;20100;-65
2022/04/26 14:36:15;;;;;;;10.02;3.25;;;20.10;73.20;;;;;;5124787;27;20047;-66
2022/04/26 14:38:41;;;;;;;14.35;3.03;;;;;;;;;;5141549;27;20427;-63
2022/04/26 14:41:08;;;;;;;7.68;3.08;;;20.10;73.50;;;;;;5144326;27;20560;-66
2022/04/26 14:43:34;;;;;;;11.00;3.10;;;20.20;72.10;;;;;;5126838;27;20400;-69
2022/04/26 14:46:00;;;;;;;14.60;3.00;;;;;;;;;;5129288;27;20038;-68
2022/04/26 14:48:29;;;;;;;8.02;2.60;;;;;;;;;;5126507;27;20043;-66
2022/04/26 14:50:55;;;;;;;8.05;2.75;;;;;;;;;;5130443;27;20035;-70
2022/04/26 14:53:22;;;;;;;7.93;2.95;;;19.90;72.80;;;;;;5130982;27;20082;-64
2022/04/26 14:55:47;;;;;;;10.70;3.42;;;20.10;73.70;;;;;;5129292;27;20039;-63
2022/04/26 14:58:14;;;;;;;6.47;2.97;;;20.30;73.70;;;;;;5124863;27;20039;-64
2022/04/26 15:00:41;;;;;;;9.15;3.05;;;20.10;74.00;;;;;;5121823;27;20481;-64
2022/04/26 15:03:07;;;;;;;10.57;2.97;;;20.00;73.90;;;;;;5125730;27;20047;-63
2022/04/26 15:05:33;;;;;;;12.07;3.10;;;20.10;74.00;;;;;;5130143;27;20040;-64
2022/04/26 15:10:43;;;;;;;8.15;2.95;;;19.90;73.90;;;;;;5131771;27;20046;-64
2022/04/26 15:18:37;;;;;;;7.75;3.05;;;19.90;73.80;;;;;;5128474;27;20047;-63
2022/04/26 15:21:07;;;;;;;8.57;2.92;;;20.10;73.60;;;;;;5115305;27;20055;-63
2022/04/26 15:23:33;;;;;;;6.47;2.83;;;19.80;73.60;;;;;;5123653;27;20104;-64
2022/04/26 15:25:59;;;;;;;5.85;2.45;;;19.90;71.80;;;;;;5116713;27;20039;-63
2022/04/26 15:28:24;;;;;;;5.72;2.90;;;19.90;73.70;;;;;;5114490;27;20366;-63
2022/04/26 15:30:50;;;;;;;6.72;2.72;;;19.70;73.50;;;;;;5100708;27;20476;-64
2022/04/26 15:33:17;;;;;;;5.40;2.65;;;19.60;73.20;;;;;;5090342;27;20518;-65
2022/04/26 15:35:43;;;;;;;6.85;2.63;;;;;;;;;;5105339;27;20057;-66
2022/04/26 15:38:12;;;;;;;6.63;3.05;;;19.60;69.20;;;;;;5136650;27;20508;-66
2022/04/26 15:40:40;;;;;;;9.23;2.85;;;19.70;70.20;;;;;;5136460;27;20043;-64
2022/04/26 15:43:06;;;;;;;5.40;2.67;;;19.40;73.20;;;;;;5136663;27;20051;-64
2022/04/26 15:45:32;;;;;;;6.70;2.72;;;19.80;73.20;;;;;;5118056;27;20451;-64
2022/04/26 15:47:58;;;;;;;5.68;2.53;;;19.70;73.30;;;;;;5135324;27;20485;-64
2022/04/26 15:50:23;;;;;;;6.45;2.55;;;19.60;73.20;;;;;;5135059;27;20131;-68
2022/04/26 15:52:50;;;;;;;6.50;2.50;;;19.70;73.50;;;;;;5099001;28;20039;-68
2022/04/26 15:55:17;;;;;;;4.95;2.45;;;19.60;73.60;;;;;;5114522;28;20054;-66
2022/04/26 15:57:44;;;;;;;6.35;2.55;;;19.60;73.70;;;;;;5097286;28;20082;-66
2022/04/26 16:00:11;;;;;;;7.32;2.70;;;19.80;74.20;;;;;;5108272;28;20050;-66
2022/04/26 16:02:39;;;;;;;9.00;3.30;;;19.80;71.20;;;;;;5133130;27;20075;-65
2022/04/26 16:05:05;;;;;;;6.90;2.80;;;19.30;73.80;;;;;;5129352;27;20038;-67
2022/04/26 16:07:32;;;;;;;8.50;2.90;;;19.50;74.30;;;;;;5134941;27;20400;-63
2022/04/26 16:20:54;;;;;;;9.75;3.70;;;19.30;74.60;;;;;;5135520;27;20421;-63
2022/04/26 16:23:20;;;;;;;9.70;3.53;;;19.30;74.50;;;;;;5133190;27;20079;-62
2022/04/26 16:25:46;;;;;;;8.10;3.58;;;19.40;74.80;;;;;;5132029;27;20047;-62
2022/04/26 16:28:12;;;;;;;8.10;3.60;;;19.30;74.50;;;;;;5098472;28;20100;-65
2022/04/26 16:30:40;;;;;;;7.05;2.92;;;19.30;74.40;;;;;;5079676;27;20055;-63
2022/04/26 16:33:06;;;;;;;6.00;3.30;;;19.50;73.20;;;;;;5113943;28;20110;-63
2022/04/26 16:35:32;;;;;;;10.00;3.95;;;19.30;74.40;;;;;;5115221;27;20074;-62
2022/04/26 16:37:58;;;;;;;6.32;3.08;;;19.20;74.50;;;;;;5096616;28;20052;-62
2022/04/26 16:40:24;;;;;;;7.70;3.25;;;19.20;74.30;;;;;;5096532;28;20051;-63
2022/04/26 16:42:50;;;;;;;6.68;3.13;;;19.20;74.40;;;;;;5106557;27;20055;-63
2022/04/26 16:45:16;;;;;;;7.78;3.00;;;19.30;74.30;;;;;;5133050;27;20407;-63
2022/04/26 16:47:41;;;;;;;7.05;3.30;;;19.10;74.20;;;;;;5119692;27;20047;-63
2022/04/26 16:50:08;;;;;;;5.65;2.90;;;19.10;74.20;;;;;;5116263;27;20043;-63
2022/04/26 16:52:35;;;;;;;7.80;3.00;;;19.20;74.30;;;;;;5134388;27;20396;-62
2022/04/26 16:55:01;;;;;;;6.70;2.90;;;19.10;74.30;;;;;;5135104;27;20062;-66
2022/04/26 16:57:28;;;;;;;5.63;2.95;;;18.90;74.20;;;;;;5102190;28;20044;-67
2022/04/26 16:59:56;;;;;;;7.60;2.55;;;19.10;74.30;;;;;;5123964;27;20050;-66
2022/04/26 17:02:23;;;;;;;7.43;2.90;;;19.00;74.20;;;;;;5133222;27;20399;-65
2022/04/26 17:04:49;;;;;;;9.82;2.80;;;19.00;74.30;;;;;;5101191;28;20047;-67
2022/04/26 17:07:15;;;;;;;6.93;2.78;;;19.00;74.30;;;;;;5096057;28;20493;-65
2022/04/26 17:09:41;;;;;;;8.45;3.15;;;19.10;71.20;;;;;;5114601;28;20047;-67
2022/04/26 17:12:08;;;;;;;8.82;3.10;;;18.90;74.30;;;;;;5099056;28;20039;-65
2022/04/26 17:14:35;;;;;;;9.65;2.90;;;19.00;74.30;;;;;;5114181;28;20148;-67
2022/04/26 17:17:02;;;;;;;5.43;2.58;;;18.90;74.50;;;;;;5113150;28;20039;-67
2022/04/26 17:19:28;;;;;;;7.00;2.63;;;19.10;74.60;;;;;;5130566;27;20111;-65
2022/04/26 17:21:56;;;;;;;7.72;3.10;;;18.90;74.60;;;;;;5113048;28;20036;-66